sensor_id;sensor_type;location;lat;lon;timestamp;temperature;humidity
19348;DHT22;9810;52.480;9.806;2024-01-25T00:01:20;8.10;99.90
19348;DHT22;9810;52.480;9.806;2024-01-25T00:03:47;8.10;99.90
19348;DHT22;9810;52.480;9.806;2024-01-25T00:06:16;8.10;99.90
19348;DHT22;9810;52.480;9.806;2024-01-25T00:08:42;8.10;99.90
19348;DHT22;9810;52.480;9.806;2024-01-25T00:11:09;8.10;99.90
19348;DHT22;9810;52.480;9.806;2024-01-25T00:13:36;8.20;99.90
19348;DHT22;9810;52.480;9.806;2024-01-25T00:16:05;8.20;99.90
19348;DHT22;9810;52.480;9.806;2024-01-25T00:18:32;8.20;99.90
19348;DHT22;9810;52.480;9.806;2024-01-25T00:20:59;8.10;99.90
19348;DHT22;9810;52.480;9.806;2024-01-25T00:23:27;8.00;99.90
19348;DHT22;9810;52.480;9.806;2024-01-25T00:25:54;8.10;99.90
19348;DHT22;9810;52.480;9.806;2024-01-25T00:28:24;8.10;99.90
19348;DHT22;9810;52.480;9.806;2024-01-25T00:30:51;8.20;99.90
19348;DHT22;9810;52.480;9.806;2024-01-25T00:33:18;8.20;99.90
19348;DHT22;9810;52.480;9.806;2024-01-25T00:35:45;8.20;99.90
19348;DHT22;9810;52.480;9.806;2024-01-25T00:38:12;8.20;99.90
19348;DHT22;9810;52.480;9.806;2024-01-25T00:40:42;8.20;99.90
19348;DHT22;9810;52.480;9.806;2024-01-25T00:43:09;8.20;99.90
19348;DHT22;9810;52.480;9.806;2024-01-25T00:45:37;8.30;99.90
19348;DHT22;9810;52.480;9.806;2024-01-25T00:48:05;8.30;99.90
19348;DHT22;9810;52.480;9.806;2024-01-25T00:50:32;8.30;99.90
19348;DHT22;9810;52.480;9.806;2024-01-25T00:52:59;8.20;99.90
19348;DHT22;9810;52.480;9.806;2024-01-25T00:55:27;8.20;99.90
19348;DHT22;9810;52.480;9.806;2024-01-25T00:57:56;8.20;99.90
19348;DHT22;9810;52.480;9.806;2024-01-25T01:00:26;8.20;99.90
19348;DHT22;9810;52.480;9.806;2024-01-25T01:02:53;8.20;99.90
19348;DHT22;9810;52.480;9.806;2024-01-25T01:05:21;8.20;99.90
19348;DHT22;9810;52.480;9.806;2024-01-25T01:07:49;8.10;99.90
19348;DHT22;9810;52.480;9.806;2024-01-25T01:10:16;8.10;99.90
19348;DHT22;9810;52.480;9.806;2024-01-25T01:12:43;8.10;99.90
19348;DHT22;9810;52.480;9.806;2024-01-25T01:15:11;8.00;99.90
19348;DHT22;9810;52.480;9.806;2024-01-25T01:17:38;8.00;99.90
19348;DHT22;9810;52.480;9.806;2024-01-25T01:20:06;8.00;99.90
19348;DHT22;9810;52.480;9.806;2024-01-25T01:22:33;8.00;99.90
19348;DHT22;9810;52.480;9.806;2024-01-25T01:25:00;7.90;99.90
19348;DHT22;9810;52.480;9.806;2024-01-25T01:27:27;8.00;99.90
19348;DHT22;9810;52.480;9.806;2024-01-25T01:29:54;8.00;99.90
19348;DHT22;9810;52.480;9.806;2024-01-25T01:32:22;8.00;99.90
19348;DHT22;9810;52.480;9.806;2024-01-25T01:34:49;8.00;99.90
19348;DHT22;9810;52.480;9.806;2024-01-25T01:37:16;8.20;99.90
19348;DHT22;9810;52.480;9.806;2024-01-25T01:39:43;8.20;99.90
19348;DHT22;9810;52.480;9.806;2024-01-25T01:42:10;8.10;99.90
19348;DHT22;9810;52.480;9.806;2024-01-25T01:44:37;8.10;99.90
19348;DHT22;9810;52.480;9.806;2024-01-25T01:47:05;8.10;99.90
19348;DHT22;9810;52.480;9.806;2024-01-25T01:49:34;8.10;99.90
19348;DHT22;9810;52.480;9.806;2024-01-25T01:52:01;8.10;99.90
19348;DHT22;9810;52.480;9.806;2024-01-25T01:54:29;8.00;99.90
19348;DHT22;9810;52.480;9.806;2024-01-25T01:56:56;8.00;99.90
19348;DHT22;9810;52.480;9.806;2024-01-25T01:59:23;7.90;99.90
19348;DHT22;9810;52.480;9.806;2024-01-25T02:01:51;7.90;99.90
19348;DHT22;9810;52.480;9.806;2024-01-25T02:04:18;7.90;99.90
19348;DHT22;9810;52.480;9.806;2024-01-25T02:06:47;7.90;99.90
19348;DHT22;9810;52.480;9.806;2024-01-25T02:09:14;7.90;99.90
19348;DHT22;9810;52.480;9.806;2024-01-25T02:11:41;7.80;99.90
19348;DHT22;9810;52.480;9.806;2024-01-25T02:14:08;7.80;99.90
19348;DHT22;9810;52.480;9.806;2024-01-25T02:16:37;7.80;99.90
19348;DHT22;9810;52.480;9.806;2024-01-25T02:19:04;7.80;99.90
19348;DHT22;9810;52.480;9.806;2024-01-25T02:21:31;7.70;99.90
19348;DHT22;9810;52.480;9.806;2024-01-25T02:23:59;7.60;99.90
19348;DHT22;9810;52.480;9.806;2024-01-25T02:26:26;7.60;99.90
19348;DHT22;9810;52.480;9.806;2024-01-25T02:28:53;7.50;99.90
19348;DHT22;9810;52.480;9.806;2024-01-25T02:31:20;7.60;99.90
19348;DHT22;9810;52.480;9.806;2024-01-25T02:33:47;7.70;99.90
19348;DHT22;9810;52.480;9.806;2024-01-25T02:36:14;7.60;99.90
19348;DHT22;9810;52.480;9.806;2024-01-25T02:38:41;7.60;99.90
19348;DHT22;9810;52.480;9.806;2024-01-25T02:41:09;7.50;99.90
19348;DHT22;9810;52.480;9.806;2024-01-25T02:43:36;7.70;99.90
19348;DHT22;9810;52.480;9.806;2024-01-25T02:46:03;7.60;99.90
19348;DHT22;9810;52.480;9.806;2024-01-25T02:48:31;7.70;99.90
19348;DHT22;9810;52.480;9.806;2024-01-25T02:50:58;7.80;99.90
19348;DHT22;9810;52.480;9.806;2024-01-25T02:53:25;7.70;99.90
19348;DHT22;9810;52.480;9.806;2024-01-25T02:55:52;7.70;99.90
19348;DHT22;9810;52.480;9.806;2024-01-25T02:58:20;7.80;99.90
19348;DHT22;9810;52.480;9.806;2024-01-25T03:00:47;7.70;99.90
19348;DHT22;9810;52.480;9.806;2024-01-25T03:03:14;7.60;99.90
19348;DHT22;9810;52.480;9.806;2024-01-25T03:05:41;7.60;99.90
19348;DHT22;9810;52.480;9.806;2024-01-25T03:08:08;7.70;99.90
19348;DHT22;9810;52.480;9.806;2024-01-25T03:10:35;7.80;99.90
19348;DHT22;9810;52.480;9.806;2024-01-25T03:13:02;7.70;99.90
19348;DHT22;9810;52.480;9.806;2024-01-25T03:15:31;7.80;99.90
19348;DHT22;9810;52.480;9.806;2024-01-25T03:17:58;7.80;99.90
19348;DHT22;9810;52.480;9.806;2024-01-25T03:20:25;7.70;99.90
19348;DHT22;9810;52.480;9.806;2024-01-25T03:22:52;7.70;99.90
19348;DHT22;9810;52.480;9.806;2024-01-25T03:25:20;7.70;99.90
19348;DHT22;9810;52.480;9.806;2024-01-25T03:27:47;7.70;99.90
19348;DHT22;9810;52.480;9.806;2024-01-25T03:30:14;7.70;99.90
19348;DHT22;9810;52.480;9.806;2024-01-25T03:32:42;7.70;99.90
19348;DHT22;9810;52.480;9.806;2024-01-25T03:35:09;7.50;99.90
19348;DHT22;9810;52.480;9.806;2024-01-25T03:37:36;7.60;99.90
19348;DHT22;9810;52.480;9.806;2024-01-25T03:40:04;7.60;99.90
19348;DHT22;9810;52.480;9.806;2024-01-25T03:42:31;7.60;99.90
19348;DHT22;9810;52.480;9.806;2024-01-25T03:44:58;7.60;99.90
19348;DHT22;9810;52.480;9.806;2024-01-25T03:47:25;7.50;99.90
19348;DHT22;9810;52.480;9.806;2024-01-25T03:49:54;7.60;99.90
19348;DHT22;9810;52.480;9.806;2024-01-25T03:52:21;7.50;99.90
19348;DHT22;9810;52.480;9.806;2024-01-25T03:54:48;7.40;99.90
19348;DHT22;9810;52.480;9.806;2024-01-25T03:57:15;7.40;99.90
19348;DHT22;9810;52.480;9.806;2024-01-25T03:59:41;7.40;99.90
19348;DHT22;9810;52.480;9.806;2024-01-25T04:02:08;7.40;99.90
19348;DHT22;9810;52.480;9.806;2024-01-25T04:04:36;7.30;99.90
19348;DHT22;9810;52.480;9.806;2024-01-25T04:07:05;7.40;99.90
19348;DHT22;9810;52.480;9.806;2024-01-25T04:09:32;7.30;99.90
19348;DHT22;9810;52.480;9.806;2024-01-25T04:11:59;7.20;99.90
19348;DHT22;9810;52.480;9.806;2024-01-25T04:14:26;7.10;99.90
19348;DHT22;9810;52.480;9.806;2024-01-25T04:16:53;7.00;99.90
19348;DHT22;9810;52.480;9.806;2024-01-25T04:19:20;7.10;99.90
19348;DHT22;9810;52.480;9.806;2024-01-25T04:21:47;7.20;99.90
19348;DHT22;9810;52.480;9.806;2024-01-25T04:24:15;7.10;99.90
19348;DHT22;9810;52.480;9.806;2024-01-25T04:26:42;7.10;99.90
19348;DHT22;9810;52.480;9.806;2024-01-25T04:29:09;7.00;99.90
19348;DHT22;9810;52.480;9.806;2024-01-25T04:31:42;7.00;99.90
19348;DHT22;9810;52.480;9.806;2024-01-25T04:34:10;7.00;99.90
19348;DHT22;9810;52.480;9.806;2024-01-25T04:36:36;7.00;99.90
19348;DHT22;9810;52.480;9.806;2024-01-25T04:39:03;7.10;99.90
19348;DHT22;9810;52.480;9.806;2024-01-25T04:41:32;7.10;99.90
19348;DHT22;9810;52.480;9.806;2024-01-25T04:43:59;7.10;99.90
19348;DHT22;9810;52.480;9.806;2024-01-25T04:46:26;7.10;99.90
19348;DHT22;9810;52.480;9.806;2024-01-25T04:48:53;7.10;99.90
19348;DHT22;9810;52.480;9.806;2024-01-25T04:51:20;7.00;99.90
19348;DHT22;9810;52.480;9.806;2024-01-25T04:53:47;6.90;99.90
19348;DHT22;9810;52.480;9.806;2024-01-25T04:56:14;6.80;99.90
19348;DHT22;9810;52.480;9.806;2024-01-25T04:58:43;6.70;99.90
19348;DHT22;9810;52.480;9.806;2024-01-25T05:01:09;6.80;99.90
19348;DHT22;9810;52.480;9.806;2024-01-25T05:03:37;6.70;99.90
19348;DHT22;9810;52.480;9.806;2024-01-25T05:06:04;6.70;99.90
19348;DHT22;9810;52.480;9.806;2024-01-25T05:08:31;6.60;99.90
19348;DHT22;9810;52.480;9.806;2024-01-25T05:10:58;6.70;99.90
19348;DHT22;9810;52.480;9.806;2024-01-25T05:13:25;6.80;99.90
19348;DHT22;9810;52.480;9.806;2024-01-25T05:15:53;6.70;99.90
19348;DHT22;9810;52.480;9.806;2024-01-25T05:18:20;6.90;99.90
19348;DHT22;9810;52.480;9.806;2024-01-25T05:20:47;6.80;99.90
19348;DHT22;9810;52.480;9.806;2024-01-25T05:23:14;6.80;99.90
19348;DHT22;9810;52.480;9.806;2024-01-25T05:25:41;6.80;99.90
19348;DHT22;9810;52.480;9.806;2024-01-25T05:28:08;6.90;99.90
19348;DHT22;9810;52.480;9.806;2024-01-25T05:30:35;6.80;99.90
19348;DHT22;9810;52.480;9.806;2024-01-25T05:33:04;6.80;99.90
19348;DHT22;9810;52.480;9.806;2024-01-25T05:35:31;6.90;99.90
19348;DHT22;9810;52.480;9.806;2024-01-25T05:37:59;6.80;99.90
19348;DHT22;9810;52.480;9.806;2024-01-25T05:40:26;7.00;99.90
19348;DHT22;9810;52.480;9.806;2024-01-25T05:42:53;6.90;99.90
19348;DHT22;9810;52.480;9.806;2024-01-25T05:45:20;6.80;99.90
19348;DHT22;9810;52.480;9.806;2024-01-25T05:47:48;6.90;99.90
19348;DHT22;9810;52.480;9.806;2024-01-25T05:50:16;6.80;99.90
19348;DHT22;9810;52.480;9.806;2024-01-25T05:52:43;6.90;99.90
19348;DHT22;9810;52.480;9.806;2024-01-25T05:55:10;6.80;99.90
19348;DHT22;9810;52.480;9.806;2024-01-25T05:57:39;6.80;99.90
19348;DHT22;9810;52.480;9.806;2024-01-25T06:00:07;6.80;99.90
19348;DHT22;9810;52.480;9.806;2024-01-25T06:02:34;6.90;99.90
19348;DHT22;9810;52.480;9.806;2024-01-25T06:05:01;6.80;99.90
19348;DHT22;9810;52.480;9.806;2024-01-25T06:07:30;6.80;99.90
19348;DHT22;9810;52.480;9.806;2024-01-25T06:09:56;6.80;99.90
19348;DHT22;9810;52.480;9.806;2024-01-25T06:12:22;6.90;99.90
19348;DHT22;9810;52.480;9.806;2024-01-25T06:14:49;6.90;99.90
19348;DHT22;9810;52.480;9.806;2024-01-25T06:17:17;6.90;99.90
19348;DHT22;9810;52.480;9.806;2024-01-25T06:19:44;7.00;99.90
19348;DHT22;9810;52.480;9.806;2024-01-25T06:22:11;7.10;99.90
19348;DHT22;9810;52.480;9.806;2024-01-25T06:24:40;7.00;99.90
19348;DHT22;9810;52.480;9.806;2024-01-25T06:27:07;7.00;99.90
19348;DHT22;9810;52.480;9.806;2024-01-25T06:29:34;6.90;99.90
19348;DHT22;9810;52.480;9.806;2024-01-25T06:32:01;6.90;99.90
19348;DHT22;9810;52.480;9.806;2024-01-25T06:34:28;6.80;99.90
19348;DHT22;9810;52.480;9.806;2024-01-25T06:36:55;6.80;99.90
19348;DHT22;9810;52.480;9.806;2024-01-25T06:39:22;6.60;99.90
19348;DHT22;9810;52.480;9.806;2024-01-25T06:41:50;6.70;99.90
19348;DHT22;9810;52.480;9.806;2024-01-25T06:44:17;6.80;99.90
19348;DHT22;9810;52.480;9.806;2024-01-25T06:46:44;6.80;99.90
19348;DHT22;9810;52.480;9.806;2024-01-25T06:49:11;6.80;99.90
19348;DHT22;9810;52.480;9.806;2024-01-25T06:51:39;6.60;99.90
19348;DHT22;9810;52.480;9.806;2024-01-25T06:54:06;6.60;99.90
19348;DHT22;9810;52.480;9.806;2024-01-25T06:56:34;6.60;99.90
19348;DHT22;9810;52.480;9.806;2024-01-25T06:59:02;6.50;99.90
19348;DHT22;9810;52.480;9.806;2024-01-25T07:01:29;6.40;99.90
19348;DHT22;9810;52.480;9.806;2024-01-25T07:03:56;6.50;99.90
19348;DHT22;9810;52.480;9.806;2024-01-25T07:06:23;6.40;99.90
19348;DHT22;9810;52.480;9.806;2024-01-25T07:08:51;6.40;99.90
19348;DHT22;9810;52.480;9.806;2024-01-25T07:11:19;6.40;99.90
19348;DHT22;9810;52.480;9.806;2024-01-25T07:13:46;6.40;99.90
19348;DHT22;9810;52.480;9.806;2024-01-25T07:16:15;6.30;99.90
19348;DHT22;9810;52.480;9.806;2024-01-25T07:18:42;6.40;99.90
19348;DHT22;9810;52.480;9.806;2024-01-25T07:21:09;6.30;99.90
19348;DHT22;9810;52.480;9.806;2024-01-25T07:23:36;6.50;99.90
19348;DHT22;9810;52.480;9.806;2024-01-25T07:26:03;6.30;99.90
19348;DHT22;9810;52.480;9.806;2024-01-25T07:28:31;6.30;99.90
19348;DHT22;9810;52.480;9.806;2024-01-25T07:30:58;6.30;99.90
19348;DHT22;9810;52.480;9.806;2024-01-25T07:33:26;6.20;99.90
19348;DHT22;9810;52.480;9.806;2024-01-25T07:35:53;6.20;99.90
19348;DHT22;9810;52.480;9.806;2024-01-25T07:38:23;6.30;99.90
19348;DHT22;9810;52.480;9.806;2024-01-25T07:40:50;6.40;99.90
19348;DHT22;9810;52.480;9.806;2024-01-25T07:43:18;6.50;99.90
19348;DHT22;9810;52.480;9.806;2024-01-25T07:45:45;6.50;99.90
19348;DHT22;9810;52.480;9.806;2024-01-25T07:48:12;6.50;99.90
19348;DHT22;9810;52.480;9.806;2024-01-25T07:50:40;6.60;99.90
19348;DHT22;9810;52.480;9.806;2024-01-25T07:53:07;6.60;99.90
19348;DHT22;9810;52.480;9.806;2024-01-25T07:55:35;6.70;99.90
19348;DHT22;9810;52.480;9.806;2024-01-25T07:58:02;6.90;99.90
19348;DHT22;9810;52.480;9.806;2024-01-25T08:00:29;6.80;99.90
19348;DHT22;9810;52.480;9.806;2024-01-25T08:02:58;6.80;99.90
19348;DHT22;9810;52.480;9.806;2024-01-25T08:05:25;6.70;99.90
19348;DHT22;9810;52.480;9.806;2024-01-25T08:07:53;6.90;99.90
19348;DHT22;9810;52.480;9.806;2024-01-25T08:10:20;7.00;99.90
19348;DHT22;9810;52.480;9.806;2024-01-25T08:12:47;6.90;99.90
19348;DHT22;9810;52.480;9.806;2024-01-25T08:15:14;6.90;99.90
19348;DHT22;9810;52.480;9.806;2024-01-25T08:17:41;6.90;99.90
19348;DHT22;9810;52.480;9.806;2024-01-25T08:20:09;6.90;99.90
19348;DHT22;9810;52.480;9.806;2024-01-25T08:22:38;7.00;99.90
19348;DHT22;9810;52.480;9.806;2024-01-25T08:25:09;6.90;99.90
19348;DHT22;9810;52.480;9.806;2024-01-25T08:27:37;6.90;99.90
19348;DHT22;9810;52.480;9.806;2024-01-25T08:30:05;7.00;99.90
19348;DHT22;9810;52.480;9.806;2024-01-25T08:32:32;6.80;99.90
19348;DHT22;9810;52.480;9.806;2024-01-25T08:34:59;7.00;99.90
19348;DHT22;9810;52.480;9.806;2024-01-25T08:37:26;7.10;99.90
19348;DHT22;9810;52.480;9.806;2024-01-25T08:39:52;7.40;99.90
19348;DHT22;9810;52.480;9.806;2024-01-25T08:42:21;7.40;99.90
19348;DHT22;9810;52.480;9.806;2024-01-25T08:44:48;7.70;99.90
19348;DHT22;9810;52.480;9.806;2024-01-25T08:47:16;7.50;99.90
19348;DHT22;9810;52.480;9.806;2024-01-25T08:49:43;7.30;99.90
19348;DHT22;9810;52.480;9.806;2024-01-25T08:52:10;7.50;99.90
19348;DHT22;9810;52.480;9.806;2024-01-25T08:54:37;7.40;99.90
19348;DHT22;9810;52.480;9.806;2024-01-25T08:57:04;7.50;99.90
19348;DHT22;9810;52.480;9.806;2024-01-25T08:59:34;7.80;99.90
19348;DHT22;9810;52.480;9.806;2024-01-25T09:02:03;7.80;99.90
19348;DHT22;9810;52.480;9.806;2024-01-25T09:04:31;7.70;99.90
19348;DHT22;9810;52.480;9.806;2024-01-25T09:06:58;7.60;99.90
19348;DHT22;9810;52.480;9.806;2024-01-25T09:09:25;7.50;99.90
19348;DHT22;9810;52.480;9.806;2024-01-25T09:11:52;7.30;99.90
19348;DHT22;9810;52.480;9.806;2024-01-25T09:14:19;7.60;99.90
19348;DHT22;9810;52.480;9.806;2024-01-25T09:16:47;7.70;99.90
19348;DHT22;9810;52.480;9.806;2024-01-25T09:19:14;7.80;99.90
19348;DHT22;9810;52.480;9.806;2024-01-25T09:21:41;7.90;99.90
19348;DHT22;9810;52.480;9.806;2024-01-25T09:24:08;8.10;99.90
19348;DHT22;9810;52.480;9.806;2024-01-25T09:26:35;7.80;99.90
19348;DHT22;9810;52.480;9.806;2024-01-25T09:29:02;8.10;99.90
19348;DHT22;9810;52.480;9.806;2024-01-25T09:31:30;8.00;99.90
19348;DHT22;9810;52.480;9.806;2024-01-25T09:33:58;7.90;99.90
19348;DHT22;9810;52.480;9.806;2024-01-25T09:36:25;7.90;99.90
19348;DHT22;9810;52.480;9.806;2024-01-25T09:38:52;8.00;99.90
19348;DHT22;9810;52.480;9.806;2024-01-25T09:41:19;8.00;99.90
19348;DHT22;9810;52.480;9.806;2024-01-25T09:43:47;8.00;99.90
19348;DHT22;9810;52.480;9.806;2024-01-25T09:46:14;8.00;99.90
19348;DHT22;9810;52.480;9.806;2024-01-25T09:48:42;8.10;99.90
19348;DHT22;9810;52.480;9.806;2024-01-25T09:51:13;8.20;99.90
19348;DHT22;9810;52.480;9.806;2024-01-25T09:53:40;8.30;99.90
19348;DHT22;9810;52.480;9.806;2024-01-25T09:56:08;8.00;99.90
19348;DHT22;9810;52.480;9.806;2024-01-25T09:58:40;7.90;99.90
19348;DHT22;9810;52.480;9.806;2024-01-25T10:01:08;8.20;99.90
19348;DHT22;9810;52.480;9.806;2024-01-25T10:03:37;8.30;99.90
19348;DHT22;9810;52.480;9.806;2024-01-25T10:06:06;8.40;99.90
19348;DHT22;9810;52.480;9.806;2024-01-25T10:08:34;8.10;99.90
19348;DHT22;9810;52.480;9.806;2024-01-25T10:11:01;8.10;99.90
19348;DHT22;9810;52.480;9.806;2024-01-25T10:13:29;8.10;99.90
19348;DHT22;9810;52.480;9.806;2024-01-25T10:15:56;7.90;99.90
19348;DHT22;9810;52.480;9.806;2024-01-25T10:18:23;8.00;99.90
19348;DHT22;9810;52.480;9.806;2024-01-25T10:20:52;7.90;99.90
19348;DHT22;9810;52.480;9.806;2024-01-25T10:23:19;8.00;99.90
19348;DHT22;9810;52.480;9.806;2024-01-25T10:25:48;8.10;99.90
19348;DHT22;9810;52.480;9.806;2024-01-25T10:28:15;8.00;99.90
19348;DHT22;9810;52.480;9.806;2024-01-25T10:30:43;8.10;99.90
19348;DHT22;9810;52.480;9.806;2024-01-25T10:33:10;8.60;99.90
19348;DHT22;9810;52.480;9.806;2024-01-25T10:35:38;8.30;99.90
19348;DHT22;9810;52.480;9.806;2024-01-25T10:38:07;8.50;99.90
19348;DHT22;9810;52.480;9.806;2024-01-25T10:40:34;8.50;99.90
19348;DHT22;9810;52.480;9.806;2024-01-25T10:43:04;8.20;99.90
19348;DHT22;9810;52.480;9.806;2024-01-25T10:45:31;8.00;99.90
19348;DHT22;9810;52.480;9.806;2024-01-25T10:47:59;8.00;99.90
19348;DHT22;9810;52.480;9.806;2024-01-25T10:50:26;8.30;99.90
19348;DHT22;9810;52.480;9.806;2024-01-25T10:52:53;8.20;99.90
19348;DHT22;9810;52.480;9.806;2024-01-25T10:55:21;8.00;99.90
19348;DHT22;9810;52.480;9.806;2024-01-25T10:57:52;7.90;99.90
19348;DHT22;9810;52.480;9.806;2024-01-25T11:00:21;8.10;99.90
19348;DHT22;9810;52.480;9.806;2024-01-25T11:02:48;8.30;99.90
19348;DHT22;9810;52.480;9.806;2024-01-25T11:05:17;8.20;99.90
19348;DHT22;9810;52.480;9.806;2024-01-25T11:07:47;8.00;99.90
19348;DHT22;9810;52.480;9.806;2024-01-25T11:10:16;7.80;99.90
19348;DHT22;9810;52.480;9.806;2024-01-25T11:12:50;7.80;99.90
19348;DHT22;9810;52.480;9.806;2024-01-25T11:15:23;7.90;99.90
19348;DHT22;9810;52.480;9.806;2024-01-25T11:17:52;8.20;99.90
19348;DHT22;9810;52.480;9.806;2024-01-25T11:20:21;8.30;99.90
19348;DHT22;9810;52.480;9.806;2024-01-25T11:22:48;8.20;99.90
19348;DHT22;9810;52.480;9.806;2024-01-25T11:25:19;8.60;99.90
19348;DHT22;9810;52.480;9.806;2024-01-25T11:27:48;9.10;99.90
19348;DHT22;9810;52.480;9.806;2024-01-25T11:30:18;9.10;99.90
19348;DHT22;9810;52.480;9.806;2024-01-25T11:32:48;9.10;99.90
19348;DHT22;9810;52.480;9.806;2024-01-25T11:35:18;9.00;99.90
19348;DHT22;9810;52.480;9.806;2024-01-25T11:37:46;9.20;99.90
19348;DHT22;9810;52.480;9.806;2024-01-25T11:40:14;9.10;99.90
19348;DHT22;9810;52.480;9.806;2024-01-25T11:42:43;9.20;99.90
19348;DHT22;9810;52.480;9.806;2024-01-25T11:45:11;8.90;99.90
19348;DHT22;9810;52.480;9.806;2024-01-25T11:47:39;8.90;99.90
19348;DHT22;9810;52.480;9.806;2024-01-25T11:50:11;8.80;99.90
19348;DHT22;9810;52.480;9.806;2024-01-25T11:52:38;9.10;99.90
19348;DHT22;9810;52.480;9.806;2024-01-25T11:55:07;9.00;99.90
19348;DHT22;9810;52.480;9.806;2024-01-25T11:57:37;9.10;99.90
19348;DHT22;9810;52.480;9.806;2024-01-25T12:00:08;9.20;99.90
19348;DHT22;9810;52.480;9.806;2024-01-25T12:02:36;9.10;99.90
19348;DHT22;9810;52.480;9.806;2024-01-25T12:05:04;9.10;99.90
19348;DHT22;9810;52.480;9.806;2024-01-25T12:07:33;8.90;99.90
19348;DHT22;9810;52.480;9.806;2024-01-25T12:10:03;8.80;99.90
19348;DHT22;9810;52.480;9.806;2024-01-25T12:12:31;8.70;99.90
19348;DHT22;9810;52.480;9.806;2024-01-25T12:14:58;9.00;99.90
19348;DHT22;9810;52.480;9.806;2024-01-25T12:17:26;8.90;99.90
19348;DHT22;9810;52.480;9.806;2024-01-25T12:19:55;8.40;99.90
19348;DHT22;9810;52.480;9.806;2024-01-25T12:22:23;8.60;99.90
19348;DHT22;9810;52.480;9.806;2024-01-25T12:24:55;8.70;99.90
19348;DHT22;9810;52.480;9.806;2024-01-25T12:27:22;8.70;99.90
19348;DHT22;9810;52.480;9.806;2024-01-25T12:29:51;8.30;99.90
19348;DHT22;9810;52.480;9.806;2024-01-25T12:32:19;8.20;99.90
19348;DHT22;9810;52.480;9.806;2024-01-25T12:34:53;8.20;99.90
19348;DHT22;9810;52.480;9.806;2024-01-25T12:37:20;8.30;99.90
19348;DHT22;9810;52.480;9.806;2024-01-25T12:39:48;8.40;99.90
19348;DHT22;9810;52.480;9.806;2024-01-25T12:42:16;8.50;99.90
19348;DHT22;9810;52.480;9.806;2024-01-25T12:44:43;8.40;99.90
19348;DHT22;9810;52.480;9.806;2024-01-25T12:47:11;8.50;99.90
19348;DHT22;9810;52.480;9.806;2024-01-25T12:49:40;8.60;99.90
19348;DHT22;9810;52.480;9.806;2024-01-25T12:52:08;8.70;99.90
19348;DHT22;9810;52.480;9.806;2024-01-25T12:54:35;9.00;99.90
19348;DHT22;9810;52.480;9.806;2024-01-25T12:57:02;8.60;99.90
19348;DHT22;9810;52.480;9.806;2024-01-25T12:59:32;9.00;99.90
19348;DHT22;9810;52.480;9.806;2024-01-25T13:01:59;8.70;99.90
19348;DHT22;9810;52.480;9.806;2024-01-25T13:04:26;8.70;99.90
19348;DHT22;9810;52.480;9.806;2024-01-25T13:06:54;8.60;99.90
19348;DHT22;9810;52.480;9.806;2024-01-25T13:09:21;8.40;99.90
19348;DHT22;9810;52.480;9.806;2024-01-25T13:11:49;8.60;99.90
19348;DHT22;9810;52.480;9.806;2024-01-25T13:14:17;8.70;99.90
19348;DHT22;9810;52.480;9.806;2024-01-25T13:16:46;8.90;99.90
19348;DHT22;9810;52.480;9.806;2024-01-25T13:19:13;8.80;99.90
19348;DHT22;9810;52.480;9.806;2024-01-25T13:21:40;8.50;99.90
19348;DHT22;9810;52.480;9.806;2024-01-25T13:24:07;8.40;99.90
19348;DHT22;9810;52.480;9.806;2024-01-25T13:26:36;8.30;99.90
19348;DHT22;9810;52.480;9.806;2024-01-25T13:29:03;8.20;99.90
19348;DHT22;9810;52.480;9.806;2024-01-25T13:31:30;8.30;99.90
19348;DHT22;9810;52.480;9.806;2024-01-25T13:33:58;8.50;99.90
19348;DHT22;9810;52.480;9.806;2024-01-25T13:36:25;8.60;99.90
19348;DHT22;9810;52.480;9.806;2024-01-25T13:38:52;8.60;99.90
19348;DHT22;9810;52.480;9.806;2024-01-25T13:41:19;8.70;99.90
19348;DHT22;9810;52.480;9.806;2024-01-25T13:43:46;8.60;99.90
19348;DHT22;9810;52.480;9.806;2024-01-25T13:46:13;8.50;99.90
19348;DHT22;9810;52.480;9.806;2024-01-25T13:48:40;8.70;99.90
19348;DHT22;9810;52.480;9.806;2024-01-25T13:51:08;8.50;99.90
19348;DHT22;9810;52.480;9.806;2024-01-25T13:53:35;8.70;99.90
19348;DHT22;9810;52.480;9.806;2024-01-25T13:56:03;8.70;99.90
19348;DHT22;9810;52.480;9.806;2024-01-25T13:58:30;8.50;99.90
19348;DHT22;9810;52.480;9.806;2024-01-25T14:00:57;8.70;99.90
19348;DHT22;9810;52.480;9.806;2024-01-25T14:03:24;8.70;99.90
19348;DHT22;9810;52.480;9.806;2024-01-25T14:05:52;8.60;99.90
19348;DHT22;9810;52.480;9.806;2024-01-25T14:08:23;8.60;99.90
19348;DHT22;9810;52.480;9.806;2024-01-25T14:10:50;8.70;99.90
19348;DHT22;9810;52.480;9.806;2024-01-25T14:13:17;8.50;99.90
19348;DHT22;9810;52.480;9.806;2024-01-25T14:15:43;8.50;99.90
19348;DHT22;9810;52.480;9.806;2024-01-25T14:18:10;8.50;99.90
19348;DHT22;9810;52.480;9.806;2024-01-25T14:20:37;8.40;99.90
19348;DHT22;9810;52.480;9.806;2024-01-25T14:23:04;8.30;99.90
19348;DHT22;9810;52.480;9.806;2024-01-25T14:25:33;8.10;99.90
19348;DHT22;9810;52.480;9.806;2024-01-25T14:27:59;8.20;99.90
19348;DHT22;9810;52.480;9.806;2024-01-25T14:30:26;8.20;99.90
19348;DHT22;9810;52.480;9.806;2024-01-25T14:32:54;8.10;99.90
19348;DHT22;9810;52.480;9.806;2024-01-25T14:35:21;8.00;99.90
19348;DHT22;9810;52.480;9.806;2024-01-25T14:37:53;8.00;99.90
19348;DHT22;9810;52.480;9.806;2024-01-25T14:40:20;7.90;99.90
19348;DHT22;9810;52.480;9.806;2024-01-25T14:42:49;7.80;99.90
19348;DHT22;9810;52.480;9.806;2024-01-25T14:45:16;7.90;99.90
19348;DHT22;9810;52.480;9.806;2024-01-25T14:47:43;7.90;99.90
19348;DHT22;9810;52.480;9.806;2024-01-25T14:50:10;7.90;99.90
19348;DHT22;9810;52.480;9.806;2024-01-25T14:52:36;8.00;99.90
19348;DHT22;9810;52.480;9.806;2024-01-25T14:55:04;8.00;99.90
19348;DHT22;9810;52.480;9.806;2024-01-25T14:57:31;8.10;99.90
19348;DHT22;9810;52.480;9.806;2024-01-25T15:00:00;8.10;99.90
19348;DHT22;9810;52.480;9.806;2024-01-25T15:02:27;8.00;99.90
19348;DHT22;9810;52.480;9.806;2024-01-25T15:04:54;7.90;99.90
19348;DHT22;9810;52.480;9.806;2024-01-25T15:07:20;7.90;99.90
19348;DHT22;9810;52.480;9.806;2024-01-25T15:09:48;7.80;99.90
19348;DHT22;9810;52.480;9.806;2024-01-25T15:12:15;7.80;99.90
19348;DHT22;9810;52.480;9.806;2024-01-25T15:14:42;7.70;99.90
19348;DHT22;9810;52.480;9.806;2024-01-25T15:17:10;7.80;99.90
19348;DHT22;9810;52.480;9.806;2024-01-25T15:19:38;7.70;99.90
19348;DHT22;9810;52.480;9.806;2024-01-25T15:22:05;7.80;99.90
19348;DHT22;9810;52.480;9.806;2024-01-25T15:24:32;7.70;99.90
19348;DHT22;9810;52.480;9.806;2024-01-25T15:26:59;7.70;99.90
19348;DHT22;9810;52.480;9.806;2024-01-25T15:29:26;7.60;99.90
19348;DHT22;9810;52.480;9.806;2024-01-25T15:31:54;7.60;99.90
19348;DHT22;9810;52.480;9.806;2024-01-25T15:34:22;7.50;99.90
19348;DHT22;9810;52.480;9.806;2024-01-25T15:36:50;7.50;99.90
19348;DHT22;9810;52.480;9.806;2024-01-25T15:39:17;7.50;99.90
19348;DHT22;9810;52.480;9.806;2024-01-25T15:41:44;7.40;99.90
19348;DHT22;9810;52.480;9.806;2024-01-25T15:44:14;7.40;99.90
19348;DHT22;9810;52.480;9.806;2024-01-25T15:46:42;7.30;99.90
19348;DHT22;9810;52.480;9.806;2024-01-25T15:49:09;7.30;99.90
19348;DHT22;9810;52.480;9.806;2024-01-25T15:51:38;7.20;99.90
19348;DHT22;9810;52.480;9.806;2024-01-25T15:54:05;7.20;99.90
19348;DHT22;9810;52.480;9.806;2024-01-25T15:56:32;7.20;99.90
19348;DHT22;9810;52.480;9.806;2024-01-25T15:58:59;7.20;99.90
19348;DHT22;9810;52.480;9.806;2024-01-25T16:01:26;7.10;99.90
19348;DHT22;9810;52.480;9.806;2024-01-25T16:03:54;7.00;99.90